»·PEaware :: N9382D KSNA-KONT

N9382D :: KSNA-KONT

FLIGHT INFORMATION

Flight Status: Arrived
Operator: Privately registered:
United States
More flights under this callsign
Pilot: Paul D. (10090)
Aircraft: BEECH AIRCRAFT A90-E90 KING AIR
(BE9L)
More flights by this aircraft type
Origin: KSNA John Wayne-Orange Co
United States
Destination: KONT Ontario Intl
United States
More flights between these airports :: More routes between these airports
Route: +SLI V8 PDZ
File this flight plan on PilotEdge
Remarks:
Altitude:
(Current/Filed)
6,000ft
Speed:
(Current/Filed)
200kts
Departed: 07-Jan-17 08:44 PM
Arrived: 07-Jan-17 09:18 PM
Distance/Time
Traveled:
27nm/0:34
Distance/Time
To Go:
Arrived

Flight Plot

Page will automatically refresh every two minutes.


Map Options




Map Legend


Flown Route
Filed Route
Departure Airport
Arrival Airport
Navaid (VOR, NDB)
Fix

Horizontal Profiles

Position Reports

Time Latitude Longitude Heading Altitude Ground
Speed
07-Jan-17 20:24 33.678576 -117.862853 327 60ft 0kts
07-Jan-17 20:25 33.678576 -117.862853 327 60ft 0kts
07-Jan-17 20:26 33.678576 -117.862853 327 60ft 0kts
07-Jan-17 20:27 33.678576 -117.862853 327 60ft 0kts
07-Jan-17 20:28 33.678576 -117.862853 327 60ft 0kts
07-Jan-17 20:29 33.678576 -117.862853 327 60ft 0kts
07-Jan-17 20:30 33.678576 -117.862853 327 60ft 0kts
07-Jan-17 20:31 33.678576 -117.862853 327 60ft 0kts
07-Jan-17 20:32 33.678576 -117.862853 327 60ft 0kts
07-Jan-17 20:33 33.678576 -117.862853 327 60ft 0kts
07-Jan-17 20:34 33.678576 -117.862853 327 60ft 0kts
07-Jan-17 20:35 33.678576 -117.862853 327 60ft 0kts
07-Jan-17 20:36 33.678576 -117.862853 327 60ft 0kts
07-Jan-17 20:37 33.678576 -117.862853 327 60ft 0kts
07-Jan-17 20:38 33.678576 -117.862853 327 60ft 0kts
07-Jan-17 20:39 33.678576 -117.862853 327 60ft 0kts
07-Jan-17 20:40 33.678576 -117.862853 327 60ft 0kts
07-Jan-17 20:41 33.678576 -117.862853 327 60ft 0kts
07-Jan-17 20:42 33.680234 -117.864993 286 60ft 0kts
07-Jan-17 20:43 33.680234 -117.864993 286 60ft 0kts
07-Jan-17 20:44 33.678235 -117.867332 207 60ft 83kts
07-Jan-17 20:45 33.638549 -117.884562 185 2008ft 192kts
07-Jan-17 20:46 33.579315 -117.893534 187 3039ft 230kts
07-Jan-17 20:47 33.524767 -117.925207 253 3737ft 236kts
07-Jan-17 20:48 33.537859 -118.001014 305 4451ft 239kts
07-Jan-17 20:49 33.587784 -118.053754 341 5152ft 241kts
07-Jan-17 20:50 33.654820 -118.057874 0 5849ft 243kts
07-Jan-17 20:51 33.723813 -118.056759 0 5999ft 251kts
07-Jan-17 20:52 33.787427 -118.034694 57 6006ft 251kts
07-Jan-17 20:53 33.807506 -117.968953 73 6000ft 252kts
07-Jan-17 20:54 33.830594 -117.874286 73 5999ft 252kts
07-Jan-17 20:55 33.851164 -117.793667 72 5999ft 252kts
07-Jan-17 20:56 33.860231 -117.758424 72 5999ft 252kts
07-Jan-17 20:57 33.877519 -117.691266 72 5999ft 252kts
07-Jan-17 20:58 33.902022 -117.597038 67 5996ft 252kts
07-Jan-17 20:59 33.960613 -117.556474 40 5741ft 260kts
07-Jan-17 21:00 33.979684 -117.492282 78 5171ft 221kts
07-Jan-17 21:01 33.996346 -117.405788 82 4230ft 233kts
07-Jan-17 21:02 34.002255 -117.342965 83 4000ft 219kts
07-Jan-17 21:03 34.008914 -117.270889 83 3999ft 214kts
07-Jan-17 21:04 34.016591 -117.187710 83 3999ft 214kts
07-Jan-17 21:05 34.023193 -117.116455 83 3999ft 214kts
07-Jan-17 21:06 34.028708 -117.057173 83 3999ft 213kts
07-Jan-17 21:07 34.060380 -117.011853 345 4760ft 205kts
07-Jan-17 21:08 34.083465 -117.073505 274 5971ft 234kts
07-Jan-17 21:09 34.072096 -117.153605 252 6000ft 249kts
07-Jan-17 21:10 34.053457 -117.235021 262 5472ft 258kts
07-Jan-17 21:11 34.056758 -117.304892 274 4253ft 176kts
07-Jan-17 21:12 34.058702 -117.359762 270 4203ft 166kts
07-Jan-17 21:13 34.057769 -117.419054 266 3710ft 183kts
07-Jan-17 21:14 34.056756 -117.471401 269 2855ft 136kts
07-Jan-17 21:15 34.057158 -117.513876 270 2020ft 117kts
07-Jan-17 21:16 34.057536 -117.553665 272 1298ft 115kts
07-Jan-17 21:17 34.056792 -117.590551 272 948ft 89kts
07-Jan-17 21:18 34.057788 -117.599912 357 948ft 0kts
07-Jan-17 21:19 34.058984 -117.599797 3 948ft 23kts
07-Jan-17 21:20 34.059407 -117.599803 0 948ft 0kts

Navigation Log

Ident Type
1. KSNA Airport
2. SLI Navaid
3. AHEIM Fix
4. OLLIE Fix
5. POXKU Fix
6. EBITE Fix
7. PDZ Navaid
8. KONT Airport